PTRZB SWMW-SBMN
Flight info
| Callsign | PTRZB |
|---|---|
| Flight time | 0h 56m |
| Altitude | 6500 |
| Route | DCT 0307S05828W 0313S05909W REA 0305S05953W DCT |
| Aircraft | C208/L-SDFGR/C |
Departure
| Time | 2026-04-25 00:21 |
|---|---|
| Airport | Maués Airport (SWMW) |
Arrival
| Time | 2026-04-25 01:17 |
|---|---|
| Airport | Ponta Pelada Airport / Manaus Air Base (SBMN) |
| Time | Latitude | Longitude | Altitude | Speed | Heading |
|---|---|---|---|---|---|
| 2026-04-25 00:09 | -3.37435 | -57.72417 | 75 ft | 0 kts | 86° |
| 2026-04-25 00:16 | -3.37435 | -57.72419 | 75 ft | 2 kts | 86° |
| 2026-04-25 00:16 | -3.37436 | -57.72434 | 67 ft | 0 kts | 86° |
| 2026-04-25 00:16 | -3.37437 | -57.72425 | 75 ft | 9 kts | 109° |
| 2026-04-25 00:16 | -3.37467 | -57.72415 | 74 ft | 0 kts | 223° |
| 2026-04-25 00:17 | -3.37489 | -57.72434 | 74 ft | 9 kts | 209° |
| 2026-04-25 00:18 | -3.37588 | -57.72434 | 77 ft | 16 kts | 173° |
| 2026-04-25 00:18 | -3.37692 | -57.72405 | 71 ft | 15 kts | 143° |
| 2026-04-25 00:18 | -3.37738 | -57.72395 | 77 ft | 9 kts | 241° |
| 2026-04-25 00:18 | -3.37717 | -57.72419 | 72 ft | 4 kts | 354° |
| 2026-04-25 00:19 | -3.37714 | -57.72420 | 77 ft | 0 kts | 353° |
| 2026-04-25 00:20 | -3.37712 | -57.72420 | 77 ft | 1 kts | 353° |
| 2026-04-25 00:20 | -3.37483 | -57.72447 | 74 ft | 79 kts | 353° |
| 2026-04-25 00:20 | -3.36778 | -57.72531 | 283 ft | 111 kts | 352° |
| 2026-04-25 00:20 | -3.36166 | -57.72972 | 624 ft | 117 kts | 300° |
| 2026-04-25 00:21 | -3.35718 | -57.73657 | 978 ft | 120 kts | 304° |
| 2026-04-25 00:21 | -3.35317 | -57.74453 | 1276 ft | 134 kts | 309° |
| 2026-04-25 00:21 | -3.34665 | -57.75140 | 1612 ft | 138 kts | 309° |
| 2026-04-25 00:21 | -3.34303 | -57.76037 | 1951 ft | 141 kts | 289° |
| 2026-04-25 00:22 | -3.34007 | -57.76978 | 2292 ft | 142 kts | 290° |
| 2026-04-25 00:22 | -3.33715 | -57.77930 | 2630 ft | 143 kts | 289° |
| 2026-04-25 00:22 | -3.33435 | -57.78878 | 2973 ft | 142 kts | 289° |
| 2026-04-25 00:22 | -3.33160 | -57.79813 | 3304 ft | 142 kts | 289° |
| 2026-04-25 00:23 | -3.32880 | -57.80760 | 3632 ft | 142 kts | 289° |
| 2026-04-25 00:23 | -3.32602 | -57.81706 | 3970 ft | 142 kts | 289° |
| 2026-04-25 00:23 | -3.32321 | -57.82655 | 4307 ft | 142 kts | 289° |
| 2026-04-25 00:23 | -3.32042 | -57.83601 | 4649 ft | 141 kts | 289° |
| 2026-04-25 00:24 | -3.31763 | -57.84547 | 4985 ft | 142 kts | 289° |
| 2026-04-25 00:24 | -3.31487 | -57.85484 | 5310 ft | 142 kts | 289° |
| 2026-04-25 00:24 | -3.31207 | -57.86432 | 5645 ft | 141 kts | 289° |
| 2026-04-25 00:24 | -3.30929 | -57.87374 | 5986 ft | 140 kts | 289° |
| 2026-04-25 00:25 | -3.30652 | -57.88314 | 6329 ft | 140 kts | 289° |
| 2026-04-25 00:25 | -3.30370 | -57.89263 | 6499 ft | 152 kts | 289° |
| 2026-04-25 00:25 | -3.30053 | -57.90334 | 6509 ft | 167 kts | 288° |
| 2026-04-25 00:25 | -3.29715 | -57.91481 | 6512 ft | 175 kts | 288° |
| 2026-04-25 00:26 | -3.29365 | -57.92669 | 6511 ft | 179 kts | 288° |
| 2026-04-25 00:26 | -3.29009 | -57.93878 | 6508 ft | 181 kts | 288° |
| 2026-04-25 00:26 | -3.28650 | -57.95093 | 6508 ft | 183 kts | 288° |
| 2026-04-25 00:26 | -3.28291 | -57.96311 | 6509 ft | 183 kts | 288° |
| 2026-04-25 00:27 | -3.27930 | -57.97532 | 6508 ft | 183 kts | 288° |
| 2026-04-25 00:27 | -3.27573 | -57.98743 | 6507 ft | 183 kts | 288° |
| 2026-04-25 00:27 | -3.27211 | -57.99968 | 6509 ft | 183 kts | 288° |
| 2026-04-25 00:27 | -3.26848 | -58.01199 | 6509 ft | 184 kts | 288° |
| 2026-04-25 00:28 | -3.26485 | -58.02425 | 6506 ft | 184 kts | 288° |
| 2026-04-25 00:28 | -3.26125 | -58.03650 | 6507 ft | 183 kts | 289° |
| 2026-04-25 00:28 | -3.25763 | -58.04872 | 6506 ft | 183 kts | 289° |
| 2026-04-25 00:28 | -3.25402 | -58.06096 | 6507 ft | 183 kts | 289° |
| 2026-04-25 00:29 | -3.25040 | -58.07321 | 6507 ft | 183 kts | 289° |
| 2026-04-25 00:29 | -3.24683 | -58.08529 | 6508 ft | 183 kts | 289° |
| 2026-04-25 00:29 | -3.24321 | -58.09754 | 6503 ft | 183 kts | 288° |
| 2026-04-25 00:29 | -3.23960 | -58.10976 | 6502 ft | 183 kts | 289° |
| 2026-04-25 00:30 | -3.23598 | -58.12201 | 6506 ft | 184 kts | 289° |
| 2026-04-25 00:30 | -3.23235 | -58.13428 | 6505 ft | 184 kts | 289° |
| 2026-04-25 00:30 | -3.22874 | -58.14655 | 6504 ft | 184 kts | 289° |
| 2026-04-25 00:30 | -3.22511 | -58.15880 | 6510 ft | 184 kts | 289° |
| 2026-04-25 00:31 | -3.22148 | -58.17110 | 6507 ft | 184 kts | 288° |
| 2026-04-25 00:31 | -3.21786 | -58.18337 | 6508 ft | 184 kts | 288° |
| 2026-04-25 00:31 | -3.21423 | -58.19562 | 6509 ft | 184 kts | 288° |
| 2026-04-25 00:31 | -3.21061 | -58.20792 | 6505 ft | 185 kts | 288° |
| 2026-04-25 00:32 | -3.20696 | -58.22023 | 6507 ft | 184 kts | 288° |
| 2026-04-25 00:32 | -3.20334 | -58.23249 | 6505 ft | 183 kts | 288° |
| 2026-04-25 00:32 | -3.19973 | -58.24471 | 6503 ft | 183 kts | 288° |
| 2026-04-25 00:32 | -3.19611 | -58.25693 | 6506 ft | 183 kts | 288° |
| 2026-04-25 00:33 | -3.19251 | -58.26915 | 6502 ft | 183 kts | 288° |
| 2026-04-25 00:33 | -3.18889 | -58.28137 | 6505 ft | 183 kts | 288° |
| 2026-04-25 00:33 | -3.18528 | -58.29359 | 6503 ft | 183 kts | 288° |
| 2026-04-25 00:33 | -3.18167 | -58.30581 | 6503 ft | 183 kts | 288° |
| 2026-04-25 00:34 | -3.17806 | -58.31801 | 6504 ft | 183 kts | 288° |
| 2026-04-25 00:34 | -3.17451 | -58.33006 | 6502 ft | 183 kts | 288° |
| 2026-04-25 00:34 | -3.17089 | -58.34225 | 6503 ft | 183 kts | 288° |
| 2026-04-25 00:34 | -3.16730 | -58.35443 | 6501 ft | 183 kts | 288° |
| 2026-04-25 00:35 | -3.16369 | -58.36661 | 6500 ft | 182 kts | 288° |
| 2026-04-25 00:35 | -3.16010 | -58.37875 | 6504 ft | 182 kts | 288° |
| 2026-04-25 00:35 | -3.15651 | -58.39091 | 6502 ft | 182 kts | 288° |
| 2026-04-25 00:35 | -3.15291 | -58.40307 | 6503 ft | 182 kts | 288° |
| 2026-04-25 00:36 | -3.14932 | -58.41523 | 6503 ft | 182 kts | 288° |
| 2026-04-25 00:36 | -3.14572 | -58.42740 | 6512 ft | 182 kts | 288° |
| 2026-04-25 00:36 | -3.14203 | -58.43970 | 6505 ft | 187 kts | 288° |
| 2026-04-25 00:36 | -3.13836 | -58.45237 | 6490 ft | 190 kts | 288° |
| 2026-04-25 00:37 | -3.13465 | -58.46492 | 6493 ft | 186 kts | 288° |
| 2026-04-25 00:37 | -3.13109 | -58.47722 | 6484 ft | 187 kts | 283° |
| 2026-04-25 00:37 | -3.13128 | -58.49024 | 6486 ft | 189 kts | 261° |
| 2026-04-25 00:37 | -3.13324 | -58.50311 | 6494 ft | 186 kts | 263° |
| 2026-04-25 00:38 | -3.13504 | -58.51589 | 6493 ft | 185 kts | 262° |
| 2026-04-25 00:38 | -3.13682 | -58.52860 | 6489 ft | 184 kts | 263° |
| 2026-04-25 00:38 | -3.13860 | -58.54127 | 6491 ft | 184 kts | 263° |
| 2026-04-25 00:38 | -3.14038 | -58.55395 | 6492 ft | 184 kts | 262° |
| 2026-04-25 00:39 | -3.14216 | -58.56658 | 6491 ft | 184 kts | 262° |
| 2026-04-25 00:39 | -3.14395 | -58.57925 | 6489 ft | 183 kts | 263° |
| 2026-04-25 00:39 | -3.14574 | -58.59189 | 6492 ft | 184 kts | 262° |
| 2026-04-25 00:39 | -3.14752 | -58.60453 | 6491 ft | 184 kts | 262° |
| 2026-04-25 00:40 | -3.14931 | -58.61721 | 6498 ft | 184 kts | 263° |
| 2026-04-25 00:40 | -3.15110 | -58.62991 | 6497 ft | 184 kts | 262° |
| 2026-04-25 00:40 | -3.15288 | -58.64246 | 6498 ft | 184 kts | 262° |
| 2026-04-25 00:40 | -3.15467 | -58.65515 | 6508 ft | 184 kts | 263° |
| 2026-04-25 00:41 | -3.15648 | -58.66787 | 6502 ft | 184 kts | 263° |
| 2026-04-25 00:41 | -3.15824 | -58.68055 | 6497 ft | 184 kts | 262° |
| 2026-04-25 00:41 | -3.16005 | -58.69324 | 6502 ft | 185 kts | 262° |
| 2026-04-25 00:41 | -3.16184 | -58.70594 | 6498 ft | 184 kts | 262° |
| 2026-04-25 00:42 | -3.16362 | -58.71863 | 6494 ft | 184 kts | 263° |
| 2026-04-25 00:42 | -3.16540 | -58.73129 | 6520 ft | 185 kts | 263° |
| 2026-04-25 00:42 | -3.16726 | -58.74444 | 6498 ft | 193 kts | 262° |
| 2026-04-25 00:42 | -3.16911 | -58.75752 | 6497 ft | 188 kts | 263° |
| 2026-04-25 00:43 | -3.17093 | -58.77036 | 6495 ft | 185 kts | 262° |
| 2026-04-25 00:43 | -3.17273 | -58.78312 | 6491 ft | 185 kts | 262° |
| 2026-04-25 00:43 | -3.17451 | -58.79582 | 6489 ft | 184 kts | 262° |
| 2026-04-25 00:43 | -3.17631 | -58.80834 | 6488 ft | 184 kts | 262° |
| 2026-04-25 00:44 | -3.17808 | -58.82100 | 6504 ft | 184 kts | 261° |
| 2026-04-25 00:44 | -3.17994 | -58.83391 | 6496 ft | 188 kts | 263° |
| 2026-04-25 00:44 | -3.18165 | -58.84679 | 6494 ft | 186 kts | 262° |
| 2026-04-25 00:44 | -3.18347 | -58.85956 | 6495 ft | 184 kts | 262° |
| 2026-04-25 00:45 | -3.18529 | -58.87231 | 6494 ft | 184 kts | 262° |
| 2026-04-25 00:45 | -3.18707 | -58.88484 | 6490 ft | 183 kts | 262° |
| 2026-04-25 00:45 | -3.18885 | -58.89749 | 6488 ft | 183 kts | 262° |
| 2026-04-25 00:45 | -3.19064 | -58.91016 | 6489 ft | 183 kts | 262° |
| 2026-04-25 00:46 | -3.19242 | -58.92276 | 6487 ft | 183 kts | 262° |
| 2026-04-25 00:46 | -3.19417 | -58.93519 | 6493 ft | 182 kts | 262° |
| 2026-04-25 00:46 | -3.19772 | -58.96038 | 6494 ft | 182 kts | 262° |
| 2026-04-25 00:47 | -3.19948 | -58.97305 | 6492 ft | 184 kts | 263° |
| 2026-04-25 00:47 | -3.20128 | -58.98556 | 6491 ft | 183 kts | 262° |
| 2026-04-25 00:47 | -3.20306 | -58.99820 | 6490 ft | 183 kts | 262° |
| 2026-04-25 00:47 | -3.20483 | -59.01080 | 6489 ft | 183 kts | 262° |
| 2026-04-25 00:48 | -3.20660 | -59.02338 | 6497 ft | 186 kts | 262° |
| 2026-04-25 00:48 | -3.20839 | -59.03624 | 6493 ft | 185 kts | 263° |
| 2026-04-25 00:48 | -3.21019 | -59.04896 | 6496 ft | 184 kts | 262° |
| 2026-04-25 00:48 | -3.21199 | -59.06164 | 6493 ft | 183 kts | 262° |
| 2026-04-25 00:49 | -3.21376 | -59.07425 | 6493 ft | 183 kts | 262° |
| 2026-04-25 00:49 | -3.21550 | -59.08668 | 6491 ft | 182 kts | 262° |
| 2026-04-25 00:49 | -3.21728 | -59.09927 | 6494 ft | 182 kts | 262° |
| 2026-04-25 00:49 | -3.21904 | -59.11182 | 6493 ft | 182 kts | 262° |
| 2026-04-25 00:50 | -3.22081 | -59.12437 | 6488 ft | 182 kts | 262° |
| 2026-04-25 00:50 | -3.22258 | -59.13694 | 6489 ft | 182 kts | 262° |
| 2026-04-25 00:50 | -3.22435 | -59.14950 | 6491 ft | 182 kts | 262° |
| 2026-04-25 00:50 | -3.22472 | -59.16194 | 6492 ft | 181 kts | 275° |
| 2026-04-25 00:51 | -3.22386 | -59.17450 | 6492 ft | 181 kts | 274° |
| 2026-04-25 00:51 | -3.22318 | -59.18713 | 6493 ft | 181 kts | 274° |
| 2026-04-25 00:51 | -3.22252 | -59.19982 | 6494 ft | 182 kts | 274° |
| 2026-04-25 00:51 | -3.22181 | -59.21252 | 6496 ft | 182 kts | 274° |
| 2026-04-25 00:52 | -3.22114 | -59.22501 | 6497 ft | 182 kts | 274° |
| 2026-04-25 00:52 | -3.22044 | -59.23769 | 6492 ft | 182 kts | 274° |
| 2026-04-25 00:52 | -3.21977 | -59.25022 | 6494 ft | 182 kts | 274° |
| 2026-04-25 00:52 | -3.21907 | -59.26284 | 6494 ft | 181 kts | 274° |
| 2026-04-25 00:53 | -3.21839 | -59.27547 | 6489 ft | 181 kts | 274° |
| 2026-04-25 00:53 | -3.21770 | -59.28807 | 6493 ft | 181 kts | 274° |
| 2026-04-25 00:53 | -3.21701 | -59.30066 | 6490 ft | 181 kts | 274° |
| 2026-04-25 00:53 | -3.21632 | -59.31331 | 6492 ft | 182 kts | 274° |
| 2026-04-25 00:54 | -3.21564 | -59.32598 | 6493 ft | 181 kts | 274° |
| 2026-04-25 00:54 | -3.21495 | -59.33841 | 6492 ft | 181 kts | 274° |
| 2026-04-25 00:54 | -3.21426 | -59.35103 | 6491 ft | 181 kts | 274° |
| 2026-04-25 00:54 | -3.21358 | -59.36365 | 6490 ft | 181 kts | 274° |
| 2026-04-25 00:55 | -3.21288 | -59.37626 | 6493 ft | 181 kts | 274° |
| 2026-04-25 00:55 | -3.21220 | -59.38887 | 6494 ft | 182 kts | 274° |
| 2026-04-25 00:55 | -3.21150 | -59.40150 | 6493 ft | 181 kts | 274° |
| 2026-04-25 00:55 | -3.21082 | -59.41398 | 6499 ft | 181 kts | 274° |
| 2026-04-25 00:56 | -3.21014 | -59.42665 | 6506 ft | 184 kts | 273° |
| 2026-04-25 00:56 | -3.20941 | -59.43946 | 6501 ft | 183 kts | 274° |
| 2026-04-25 00:56 | -3.20873 | -59.45215 | 6496 ft | 182 kts | 274° |
| 2026-04-25 00:56 | -3.20804 | -59.46479 | 6493 ft | 182 kts | 274° |
| 2026-04-25 00:57 | -3.20735 | -59.47740 | 6496 ft | 181 kts | 274° |
| 2026-04-25 00:57 | -3.20666 | -59.49002 | 6493 ft | 181 kts | 274° |
| 2026-04-25 00:57 | -3.20596 | -59.50263 | 6494 ft | 181 kts | 274° |
| 2026-04-25 00:57 | -3.20528 | -59.51525 | 6491 ft | 181 kts | 274° |
| 2026-04-25 00:58 | -3.20461 | -59.52770 | 6494 ft | 180 kts | 274° |
| 2026-04-25 00:58 | -3.20394 | -59.54027 | 6504 ft | 183 kts | 273° |
| 2026-04-25 00:58 | -3.20322 | -59.55299 | 6491 ft | 182 kts | 274° |
| 2026-04-25 00:58 | -3.20248 | -59.56591 | 6156 ft | 182 kts | 274° |
| 2026-04-25 00:59 | -3.20181 | -59.57828 | 5769 ft | 175 kts | 274° |
| 2026-04-25 00:59 | -3.20117 | -59.59026 | 5401 ft | 171 kts | 274° |
| 2026-04-25 00:59 | -3.20053 | -59.60210 | 5037 ft | 171 kts | 274° |
| 2026-04-25 00:59 | -3.19988 | -59.61374 | 4689 ft | 168 kts | 274° |
| 2026-04-25 01:00 | -3.19925 | -59.62537 | 4311 ft | 167 kts | 274° |
| 2026-04-25 01:00 | -3.19860 | -59.63695 | 3968 ft | 166 kts | 275° |
| 2026-04-25 01:00 | -3.19558 | -59.64795 | 3592 ft | 164 kts | 302° |
| 2026-04-25 01:00 | -3.18834 | -59.65651 | 3234 ft | 161 kts | 320° |
| 2026-04-25 01:01 | -3.18022 | -59.66423 | 2863 ft | 161 kts | 319° |
| 2026-04-25 01:01 | -3.17216 | -59.67203 | 2506 ft | 161 kts | 318° |
| 2026-04-25 01:01 | -3.16425 | -59.67974 | 2150 ft | 160 kts | 318° |
| 2026-04-25 01:01 | -3.15624 | -59.68753 | 1907 ft | 162 kts | 317° |
| 2026-04-25 01:02 | -3.14798 | -59.69554 | 1911 ft | 169 kts | 317° |
| 2026-04-25 01:02 | -3.13942 | -59.70385 | 1909 ft | 173 kts | 317° |
| 2026-04-25 01:02 | -3.13069 | -59.71231 | 1908 ft | 175 kts | 317° |
| 2026-04-25 01:02 | -3.12192 | -59.72085 | 1907 ft | 176 kts | 317° |
| 2026-04-25 01:03 | -3.11308 | -59.72942 | 1908 ft | 177 kts | 317° |
| 2026-04-25 01:03 | -3.10424 | -59.73801 | 1899 ft | 177 kts | 317° |
| 2026-04-25 01:03 | -3.09545 | -59.74657 | 1913 ft | 184 kts | 317° |
| 2026-04-25 01:03 | -3.08623 | -59.75540 | 1892 ft | 181 kts | 317° |
| 2026-04-25 01:04 | -3.07732 | -59.76418 | 1890 ft | 179 kts | 317° |
| 2026-04-25 01:04 | -3.06840 | -59.77283 | 1896 ft | 178 kts | 317° |
| 2026-04-25 01:04 | -3.06249 | -59.77857 | 1894 ft | 178 kts | 317° |
| 2026-04-25 01:04 | -3.05069 | -59.78999 | 1895 ft | 178 kts | 317° |
| 2026-04-25 01:05 | -3.04481 | -59.79572 | 1894 ft | 177 kts | 317° |
| 2026-04-25 01:05 | -3.03799 | -59.80594 | 1894 ft | 179 kts | 290° |
| 2026-04-25 01:05 | -3.03608 | -59.81819 | 1887 ft | 179 kts | 266° |
| 2026-04-25 01:05 | -3.03933 | -59.83016 | 1901 ft | 180 kts | 242° |
| 2026-04-25 01:06 | -3.04869 | -59.84347 | 1977 ft | 178 kts | 236° |
| 2026-04-25 01:06 | -3.05343 | -59.85048 | 1907 ft | 180 kts | 234° |
| 2026-04-25 01:06 | -3.06074 | -59.86059 | 1903 ft | 178 kts | 233° |
| 2026-04-25 01:06 | -3.06790 | -59.87068 | 1904 ft | 179 kts | 233° |
| 2026-04-25 01:07 | -3.07496 | -59.88069 | 1901 ft | 178 kts | 234° |
| 2026-04-25 01:07 | -3.08178 | -59.89108 | 1902 ft | 178 kts | 243° |
| 2026-04-25 01:07 | -3.08449 | -59.90250 | 1806 ft | 169 kts | 266° |
| 2026-04-25 01:07 | -3.08434 | -59.91406 | 1451 ft | 156 kts | 270° |
| 2026-04-25 01:08 | -3.08434 | -59.92415 | 1285 ft | 133 kts | 270° |
| 2026-04-25 01:08 | -3.08429 | -59.93280 | 1283 ft | 116 kts | 270° |
| 2026-04-25 01:08 | -3.08427 | -59.94104 | 1289 ft | 125 kts | 269° |
| 2026-04-25 01:08 | -3.08471 | -59.95003 | 1305 ft | 136 kts | 257° |
| 2026-04-25 01:09 | -3.08741 | -59.95914 | 1306 ft | 137 kts | 253° |
| 2026-04-25 01:09 | -3.08997 | -59.96839 | 1296 ft | 138 kts | 253° |
| 2026-04-25 01:09 | -3.09252 | -59.97763 | 1305 ft | 138 kts | 253° |
| 2026-04-25 01:09 | -3.09513 | -59.98700 | 1307 ft | 141 kts | 254° |
| 2026-04-25 01:10 | -3.09776 | -59.99648 | 1303 ft | 142 kts | 254° |
| 2026-04-25 01:10 | -3.10037 | -60.00599 | 1298 ft | 143 kts | 254° |
| 2026-04-25 01:10 | -3.10301 | -60.01551 | 1302 ft | 144 kts | 254° |
| 2026-04-25 01:10 | -3.10569 | -60.02518 | 1310 ft | 145 kts | 254° |
| 2026-04-25 01:11 | -3.10841 | -60.03503 | 1306 ft | 148 kts | 254° |
| 2026-04-25 01:11 | -3.11117 | -60.04500 | 1305 ft | 149 kts | 253° |
| 2026-04-25 01:11 | -3.11395 | -60.05508 | 1318 ft | 151 kts | 254° |
| 2026-04-25 01:11 | -3.11675 | -60.06511 | 1317 ft | 147 kts | 254° |
| 2026-04-25 01:12 | -3.11942 | -60.07489 | 1309 ft | 145 kts | 254° |
| 2026-04-25 01:12 | -3.12258 | -60.08431 | 1314 ft | 142 kts | 240° |
| 2026-04-25 01:12 | -3.12941 | -60.09102 | 1311 ft | 133 kts | 208° |
| 2026-04-25 01:12 | -3.13792 | -60.09349 | 1314 ft | 124 kts | 180° |
| 2026-04-25 01:13 | -3.14615 | -60.09215 | 1285 ft | 120 kts | 161° |
| 2026-04-25 01:13 | -3.15424 | -60.09001 | 1288 ft | 120 kts | 163° |
| 2026-04-25 01:13 | -3.16170 | -60.08622 | 1285 ft | 124 kts | 135° |
| 2026-04-25 01:13 | -3.16576 | -60.07851 | 1114 ft | 130 kts | 101° |
| 2026-04-25 01:14 | -3.16500 | -60.06954 | 912 ft | 126 kts | 76° |
| 2026-04-25 01:14 | -3.16300 | -60.06118 | 684 ft | 122 kts | 78° |
| 2026-04-25 01:14 | -3.16119 | -60.05317 | 590 ft | 112 kts | 77° |
| 2026-04-25 01:14 | -3.15977 | -60.04582 | 583 ft | 104 kts | 81° |
| 2026-04-25 01:15 | -3.15829 | -60.03891 | 585 ft | 100 kts | 79° |
| 2026-04-25 01:15 | -3.15705 | -60.03212 | 551 ft | 102 kts | 80° |
| 2026-04-25 01:15 | -3.15575 | -60.02505 | 503 ft | 102 kts | 80° |
| 2026-04-25 01:15 | -3.15397 | -60.01828 | 499 ft | 99 kts | 76° |
| 2026-04-25 01:16 | -3.15221 | -60.01164 | 499 ft | 98 kts | 76° |
| 2026-04-25 01:16 | -3.15050 | -60.00501 | 476 ft | 100 kts | 77° |
| 2026-04-25 01:16 | -3.14904 | -59.99841 | 371 ft | 89 kts | 78° |
| 2026-04-25 01:16 | -3.14779 | -59.99342 | 260 ft | 55 kts | 76° |
| 2026-04-25 01:17 | -3.14725 | -59.99122 | 261 ft | 16 kts | 77° |
| 2026-04-25 01:17 | -3.14705 | -59.99036 | 260 ft | 14 kts | 77° |
| 2026-04-25 01:17 | -3.14672 | -59.98905 | 261 ft | 23 kts | 77° |
| 2026-04-25 01:17 | -3.14637 | -59.98751 | 260 ft | 22 kts | 77° |
| 2026-04-25 01:18 | -3.14576 | -59.98652 | 259 ft | 8 kts | 354° |
| 2026-04-25 01:18 | -3.14562 | -59.98655 | 259 ft | 0 kts | 348° |
| 2026-04-25 01:19 | -3.14546 | -59.98687 | 259 ft | 9 kts | 259° |
| 2026-04-25 01:19 | -3.14561 | -59.98754 | 260 ft | 11 kts | 257° |
| 2026-04-25 01:20 | -3.14581 | -59.98829 | 260 ft | 13 kts | 254° |
| 2026-04-25 01:20 | -3.14608 | -59.98926 | 260 ft | 16 kts | 257° |
| 2026-04-25 01:20 | -3.14632 | -59.99036 | 260 ft | 15 kts | 258° |
| 2026-04-25 01:20 | -3.14612 | -59.99116 | 260 ft | 6 kts | 269° |
| 2026-04-25 01:21 | -3.14624 | -59.99166 | 260 ft | 9 kts | 256° |
| 2026-04-25 01:21 | -3.14640 | -59.99233 | 260 ft | 10 kts | 256° |
| 2026-04-25 01:21 | -3.14660 | -59.99308 | 260 ft | 12 kts | 256° |
| 2026-04-25 01:21 | -3.14684 | -59.99400 | 260 ft | 17 kts | 255° |
| 2026-04-25 01:22 | -3.14715 | -59.99521 | 260 ft | 18 kts | 257° |
| 2026-04-25 01:22 | -3.14722 | -59.99610 | 260 ft | 10 kts | 314° |
| 2026-04-25 01:22 | -3.14707 | -59.99615 | 260 ft | 1 kts | 9° |
| 2026-04-25 01:22 | -3.14702 | -59.99613 | 260 ft | 0 kts | 35° |